sensor_id;sensor_type;location;lat;lon;timestamp;pressure;altitude;pressure_sealevel;temperature;humidity
57086;BME280;42964;42.910;23.792;2023-09-18T00:02:29;98149.31;;;16.65;100.00
57086;BME280;42964;42.910;23.792;2023-09-18T00:07:30;98149.53;;;16.53;100.00
57086;BME280;42964;42.910;23.792;2023-09-18T00:12:28;98151.41;;;16.46;100.00
57086;BME280;42964;42.910;23.792;2023-09-18T00:17:27;98158.00;;;16.67;100.00
57086;BME280;42964;42.910;23.792;2023-09-18T00:22:26;98151.72;;;16.76;100.00
57086;BME280;42964;42.910;23.792;2023-09-18T00:27:27;98144.66;;;16.81;99.78
57086;BME280;42964;42.910;23.792;2023-09-18T00:32:27;98150.78;;;16.82;99.86
57086;BME280;42964;42.910;23.792;2023-09-18T00:37:26;98151.56;;;16.87;99.97
57086;BME280;42964;42.910;23.792;2023-09-18T00:42:25;98151.56;;;16.87;99.66
57086;BME280;42964;42.910;23.792;2023-09-18T00:47:24;98161.22;;;16.83;100.00
57086;BME280;42964;42.910;23.792;2023-09-18T00:52:24;98156.88;;;16.79;100.00
57086;BME280;42964;42.910;23.792;2023-09-18T00:57:23;98156.00;;;16.80;100.00
57086;BME280;42964;42.910;23.792;2023-09-18T01:02:22;98162.06;;;16.85;100.00
57086;BME280;42964;42.910;23.792;2023-09-18T01:07:22;98165.44;;;16.90;100.00
57086;BME280;42964;42.910;23.792;2023-09-18T01:13:04;98170.84;;;16.84;99.41
57086;BME280;42964;42.910;23.792;2023-09-18T01:17:43;98166.69;;;16.69;99.75
57086;BME280;42964;42.910;23.792;2023-09-18T01:22:42;98167.91;;;16.51;100.00
57086;BME280;42964;42.910;23.792;2023-09-18T01:27:42;98165.50;;;16.39;100.00
57086;BME280;42964;42.910;23.792;2023-09-18T01:32:42;98136.22;;;16.16;100.00
57086;BME280;42964;42.910;23.792;2023-09-18T01:37:41;98158.88;;;16.18;100.00
57086;BME280;42964;42.910;23.792;2023-09-18T01:42:42;98147.44;;;16.24;100.00
57086;BME280;42964;42.910;23.792;2023-09-18T01:47:42;98148.38;;;16.20;100.00
57086;BME280;42964;42.910;23.792;2023-09-18T01:52:41;98159.56;;;16.29;100.00
57086;BME280;42964;42.910;23.792;2023-09-18T01:57:40;98154.44;;;16.23;100.00
57086;BME280;42964;42.910;23.792;2023-09-18T02:02:40;98152.75;;;16.21;100.00
57086;BME280;42964;42.910;23.792;2023-09-18T02:07:39;98152.53;;;16.33;100.00
57086;BME280;42964;42.910;23.792;2023-09-18T02:12:39;98166.31;;;16.44;100.00
57086;BME280;42964;42.910;23.792;2023-09-18T02:17:38;98165.47;;;16.41;100.00
57086;BME280;42964;42.910;23.792;2023-09-18T02:22:40;98076.47;;;15.90;100.00
57086;BME280;42964;42.910;23.792;2023-09-18T02:27:39;98174.09;;;16.47;100.00
57086;BME280;42964;42.910;23.792;2023-09-18T02:32:38;98169.69;;;16.49;100.00
57086;BME280;42964;42.910;23.792;2023-09-18T02:37:37;98166.06;;;16.57;100.00
57086;BME280;42964;42.910;23.792;2023-09-18T02:42:35;98159.84;;;16.62;100.00
57086;BME280;42964;42.910;23.792;2023-09-18T02:47:34;98164.16;;;16.65;100.00
57086;BME280;42964;42.910;23.792;2023-09-18T02:52:35;98158.16;;;16.58;100.00
57086;BME280;42964;42.910;23.792;2023-09-18T02:57:34;98164.28;;;16.59;100.00
57086;BME280;42964;42.910;23.792;2023-09-18T03:02:33;98162.00;;;16.40;100.00
57086;BME280;42964;42.910;23.792;2023-09-18T03:07:32;98160.56;;;16.22;100.00
57086;BME280;42964;42.910;23.792;2023-09-18T03:12:31;98165.00;;;16.19;100.00
57086;BME280;42964;42.910;23.792;2023-09-18T03:17:30;98164.16;;;16.17;100.00
57086;BME280;42964;42.910;23.792;2023-09-18T03:22:29;98168.63;;;16.10;100.00
57086;BME280;42964;42.910;23.792;2023-09-18T03:27:28;98173.38;;;15.88;100.00
57086;BME280;42964;42.910;23.792;2023-09-18T03:32:27;98169.09;;;15.78;100.00
57086;BME280;42964;42.910;23.792;2023-09-18T03:37:26;98156.28;;;15.62;100.00
57086;BME280;42964;42.910;23.792;2023-09-18T03:42:25;98161.53;;;15.59;100.00
57086;BME280;42964;42.910;23.792;2023-09-18T03:47:24;98147.66;;;15.54;100.00
57086;BME280;42964;42.910;23.792;2023-09-18T03:52:23;98147.44;;;15.68;100.00
57086;BME280;42964;42.910;23.792;2023-09-18T03:57:22;98153.78;;;15.53;100.00
57086;BME280;42964;42.910;23.792;2023-09-18T04:02:24;98152.75;;;15.63;100.00
57086;BME280;42964;42.910;23.792;2023-09-18T04:07:23;98143.84;;;15.75;100.00
57086;BME280;42964;42.910;23.792;2023-09-18T04:12:22;98154.22;;;15.83;100.00
57086;BME280;42964;42.910;23.792;2023-09-18T04:17:21;98149.00;;;15.83;100.00
57086;BME280;42964;42.910;23.792;2023-09-18T04:22:20;98155.06;;;15.85;100.00
57086;BME280;42964;42.910;23.792;2023-09-18T04:27:18;98152.44;;;15.85;100.00
57086;BME280;42964;42.910;23.792;2023-09-18T04:32:17;98160.44;;;15.74;100.00
57086;BME280;42964;42.910;23.792;2023-09-18T04:37:16;98172.59;;;15.80;100.00
57086;BME280;42964;42.910;23.792;2023-09-18T04:42:15;98168.44;;;15.65;100.00
57086;BME280;42964;42.910;23.792;2023-09-18T04:47:14;98170.34;;;15.54;100.00
57086;BME280;42964;42.910;23.792;2023-09-18T04:52:13;98171.00;;;15.66;100.00
57086;BME280;42964;42.910;23.792;2023-09-18T04:57:12;98167.41;;;15.74;100.00
57086;BME280;42964;42.910;23.792;2023-09-18T05:02:11;98167.41;;;15.74;100.00
57086;BME280;42964;42.910;23.792;2023-09-18T05:07:10;98168.25;;;15.77;100.00
57086;BME280;42964;42.910;23.792;2023-09-18T05:12:09;98166.50;;;15.76;100.00
57086;BME280;42964;42.910;23.792;2023-09-18T05:17:16;98170.09;;;15.69;100.00
57086;BME280;42964;42.910;23.792;2023-09-18T05:22:15;98045.66;;;14.97;100.00
57086;BME280;42964;42.910;23.792;2023-09-18T05:27:14;98171.69;;;15.81;100.00
57086;BME280;42964;42.910;23.792;2023-09-18T05:32:13;98161.16;;;15.87;100.00
57086;BME280;42964;42.910;23.792;2023-09-18T05:37:12;98173.72;;;16.18;100.00
57086;BME280;42964;42.910;23.792;2023-09-18T05:42:11;98184.97;;;16.26;100.00
57086;BME280;42964;42.910;23.792;2023-09-18T05:47:11;98179.50;;;16.37;100.00
57086;BME280;42964;42.910;23.792;2023-09-18T05:52:10;98188.88;;;16.51;100.00
57086;BME280;42964;42.910;23.792;2023-09-18T05:57:09;98189.44;;;16.67;99.98
57086;BME280;42964;42.910;23.792;2023-09-18T06:02:08;98191.97;;;16.72;99.24
57086;BME280;42964;42.910;23.792;2023-09-18T06:07:06;98195.47;;;16.72;97.99
57086;BME280;42964;42.910;23.792;2023-09-18T06:12:06;98198.69;;;16.88;98.92
57086;BME280;42964;42.910;23.792;2023-09-18T06:17:05;98187.97;;;17.01;99.92
57086;BME280;42964;42.910;23.792;2023-09-18T06:22:04;98194.19;;;17.39;99.83
57086;BME280;42964;42.910;23.792;2023-09-18T06:27:04;98193.59;;;17.66;99.32
57086;BME280;42964;42.910;23.792;2023-09-18T06:32:03;98188.53;;;17.96;97.83
57086;BME280;42964;42.910;23.792;2023-09-18T06:37:02;98195.84;;;18.21;96.28
57086;BME280;42964;42.910;23.792;2023-09-18T06:42:05;98190.97;;;18.41;94.46
57086;BME280;42964;42.910;23.792;2023-09-18T06:47:05;98195.38;;;18.39;93.73
57086;BME280;42964;42.910;23.792;2023-09-18T06:52:04;98189.31;;;18.37;93.16
57086;BME280;42964;42.910;23.792;2023-09-18T06:57:05;98193.09;;;18.59;92.16
57086;BME280;42964;42.910;23.792;2023-09-18T07:02:04;98199.41;;;18.87;92.99
57086;BME280;42964;42.910;23.792;2023-09-18T07:07:03;98192.06;;;18.99;90.63
57086;BME280;42964;42.910;23.792;2023-09-18T07:12:02;98196.81;;;18.85;89.11
57086;BME280;42964;42.910;23.792;2023-09-18T07:17:01;98190.94;;;18.75;88.99
57086;BME280;42964;42.910;23.792;2023-09-18T07:22:01;98165.56;;;18.40;89.79
57086;BME280;42964;42.910;23.792;2023-09-18T07:27:00;98189.59;;;18.59;91.32
57086;BME280;42964;42.910;23.792;2023-09-18T07:31:59;98194.94;;;18.90;91.88
57086;BME280;42964;42.910;23.792;2023-09-18T07:37:00;98193.41;;;19.13;91.39
57086;BME280;42964;42.910;23.792;2023-09-18T07:41:59;98189.06;;;19.41;90.76
57086;BME280;42964;42.910;23.792;2023-09-18T07:46:58;98164.16;;;19.53;89.96
57086;BME280;42964;42.910;23.792;2023-09-18T07:51:59;98194.47;;;19.96;88.72
57086;BME280;42964;42.910;23.792;2023-09-18T07:56:58;98175.34;;;19.90;87.49
57086;BME280;42964;42.910;23.792;2023-09-18T08:01:59;98170.50;;;20.04;86.62
57086;BME280;42964;42.910;23.792;2023-09-18T08:06:58;98184.63;;;20.28;85.37
57086;BME280;42964;42.910;23.792;2023-09-18T08:11:57;98182.28;;;20.47;84.48
57086;BME280;42964;42.910;23.792;2023-09-18T08:16:57;98183.53;;;20.62;83.47
57086;BME280;42964;42.910;23.792;2023-09-18T08:21:57;98181.75;;;20.62;83.06
57086;BME280;42964;42.910;23.792;2023-09-18T08:26:56;98169.94;;;20.73;82.85
57086;BME280;42964;42.910;23.792;2023-09-18T08:31:55;98135.81;;;20.68;80.46
57086;BME280;42964;42.910;23.792;2023-09-18T08:36:55;98156.41;;;21.07;77.34
57086;BME280;42964;42.910;23.792;2023-09-18T08:41:58;98151.13;;;21.32;76.88
57086;BME280;42964;42.910;23.792;2023-09-18T08:46:58;98151.22;;;21.74;72.27
57086;BME280;42964;42.910;23.792;2023-09-18T08:51:58;98149.75;;;21.67;71.57
57086;BME280;42964;42.910;23.792;2023-09-18T08:56:58;98146.19;;;21.90;71.73
57086;BME280;42964;42.910;23.792;2023-09-18T09:01:57;98145.84;;;22.00;70.26
57086;BME280;42964;42.910;23.792;2023-09-18T09:06:56;98137.81;;;22.23;67.97
57086;BME280;42964;42.910;23.792;2023-09-18T09:11:57;98124.53;;;22.45;67.91
57086;BME280;42964;42.910;23.792;2023-09-18T09:16:56;98104.63;;;22.77;67.28
57086;BME280;42964;42.910;23.792;2023-09-18T09:21:59;98132.44;;;23.26;66.43
57086;BME280;42964;42.910;23.792;2023-09-18T09:27:00;98128.13;;;23.80;65.03
57086;BME280;42964;42.910;23.792;2023-09-18T09:32:15;98122.75;;;24.53;63.99
57086;BME280;42964;42.910;23.792;2023-09-18T09:37:15;98116.03;;;24.96;56.92
57086;BME280;42964;42.910;23.792;2023-09-18T09:42:20;98095.69;;;25.28;56.94
57086;BME280;42964;42.910;23.792;2023-09-18T09:47:27;98110.59;;;25.15;54.61
57086;BME280;42964;42.910;23.792;2023-09-18T09:52:26;98111.59;;;24.46;55.84
57086;BME280;42964;42.910;23.792;2023-09-18T09:57:25;98080.31;;;23.64;57.00
57086;BME280;42964;42.910;23.792;2023-09-18T10:02:24;98088.19;;;23.66;57.40
57086;BME280;42964;42.910;23.792;2023-09-18T10:07:24;98118.34;;;23.99;57.76
57086;BME280;42964;42.910;23.792;2023-09-18T10:12:23;98033.97;;;24.25;57.99
57086;BME280;42964;42.910;23.792;2023-09-18T10:17:23;98074.88;;;25.21;54.65
57086;BME280;42964;42.910;23.792;2023-09-18T10:22:33;98089.19;;;25.50;52.66
57086;BME280;42964;42.910;23.792;2023-09-18T10:27:39;98087.13;;;25.87;52.49
57086;BME280;42964;42.910;23.792;2023-09-18T10:32:44;98091.25;;;25.77;51.10
57086;BME280;42964;42.910;23.792;2023-09-18T10:37:45;98079.59;;;25.47;51.11
57086;BME280;42964;42.910;23.792;2023-09-18T10:42:46;98083.19;;;25.30;50.55
57086;BME280;42964;42.910;23.792;2023-09-18T10:47:47;98080.41;;;24.67;51.26
57086;BME280;42964;42.910;23.792;2023-09-18T10:52:47;98076.00;;;24.83;51.09
57086;BME280;42964;42.910;23.792;2023-09-18T10:57:53;98076.03;;;24.66;50.91
57086;BME280;42964;42.910;23.792;2023-09-18T11:08:31;98068.84;;;24.68;50.88
57086;BME280;42964;42.910;23.792;2023-09-18T11:13:36;98069.81;;;25.00;49.21
57086;BME280;42964;42.910;23.792;2023-09-18T11:18:37;98070.31;;;24.91;49.60
57086;BME280;42964;42.910;23.792;2023-09-18T11:23:37;98054.66;;;25.02;48.46
57086;BME280;42964;42.910;23.792;2023-09-18T11:28:37;98049.00;;;25.24;47.27
57086;BME280;42964;42.910;23.792;2023-09-18T11:33:40;98049.16;;;25.69;46.42
57086;BME280;42964;42.910;23.792;2023-09-18T11:39:02;98032.28;;;26.00;44.64
57086;BME280;42964;42.910;23.792;2023-09-18T11:49:14;98013.94;;;26.54;46.01
57086;BME280;42964;42.910;23.792;2023-09-18T11:54:19;98016.78;;;27.09;43.92
57086;BME280;42964;42.910;23.792;2023-09-18T11:59:33;98005.03;;;26.84;43.17
57086;BME280;42964;42.910;23.792;2023-09-18T12:04:34;98001.31;;;26.87;43.69
57086;BME280;42964;42.910;23.792;2023-09-18T12:09:33;97985.03;;;26.63;42.27
57086;BME280;42964;42.910;23.792;2023-09-18T12:14:33;97980.19;;;26.55;43.92
57086;BME280;42964;42.910;23.792;2023-09-18T12:19:32;97935.69;;;26.00;45.22
57086;BME280;42964;42.910;23.792;2023-09-18T12:24:33;97999.97;;;26.51;44.63
57086;BME280;42964;42.910;23.792;2023-09-18T12:29:32;97990.06;;;26.82;44.88
57086;BME280;42964;42.910;23.792;2023-09-18T12:34:31;97989.38;;;27.07;44.31
57086;BME280;42964;42.910;23.792;2023-09-18T12:39:33;97985.13;;;26.75;44.01
57086;BME280;42964;42.910;23.792;2023-09-18T12:44:32;97980.00;;;26.44;43.63
57086;BME280;42964;42.910;23.792;2023-09-18T12:49:31;97961.63;;;26.10;44.95
57086;BME280;42964;42.910;23.792;2023-09-18T12:54:43;97964.19;;;25.98;44.70
57086;BME280;42964;42.910;23.792;2023-09-18T12:59:44;97953.38;;;25.70;45.21
57086;BME280;42964;42.910;23.792;2023-09-18T13:04:55;97962.59;;;26.09;44.63
57086;BME280;42964;42.910;23.792;2023-09-18T13:10:00;97957.28;;;26.09;44.79
57086;BME280;42964;42.910;23.792;2023-09-18T13:15:01;97934.66;;;26.16;44.36
57086;BME280;42964;42.910;23.792;2023-09-18T13:20:09;97926.34;;;26.37;43.80
57086;BME280;42964;42.910;23.792;2023-09-18T13:25:09;97927.25;;;26.07;43.40
57086;BME280;42964;42.910;23.792;2023-09-18T13:30:11;97945.97;;;26.34;42.93
57086;BME280;42964;42.910;23.792;2023-09-18T13:35:10;97939.41;;;26.11;43.34
57086;BME280;42964;42.910;23.792;2023-09-18T13:40:12;97942.91;;;25.83;44.09
57086;BME280;42964;42.910;23.792;2023-09-18T13:45:11;97936.09;;;25.63;44.77
57086;BME280;42964;42.910;23.792;2023-09-18T13:50:10;97936.88;;;25.80;44.78
57086;BME280;42964;42.910;23.792;2023-09-18T13:55:12;97829.03;;;25.01;44.78
57086;BME280;42964;42.910;23.792;2023-09-18T14:00:11;97889.56;;;25.56;44.44
57086;BME280;42964;42.910;23.792;2023-09-18T14:05:10;97929.34;;;26.02;44.68
57086;BME280;42964;42.910;23.792;2023-09-18T14:10:10;97929.09;;;26.21;43.03
57086;BME280;42964;42.910;23.792;2023-09-18T14:15:10;97915.59;;;26.24;43.10
57086;BME280;42964;42.910;23.792;2023-09-18T14:20:09;97925.78;;;25.87;42.61
57086;BME280;42964;42.910;23.792;2023-09-18T14:25:09;97922.63;;;25.81;42.88
57086;BME280;42964;42.910;23.792;2023-09-18T14:30:08;97921.50;;;25.85;42.67
57086;BME280;42964;42.910;23.792;2023-09-18T14:35:07;97920.91;;;25.65;43.10
57086;BME280;42964;42.910;23.792;2023-09-18T14:40:07;97915.38;;;25.54;44.24
57086;BME280;42964;42.910;23.792;2023-09-18T14:45:10;97906.56;;;25.38;44.29
57086;BME280;42964;42.910;23.792;2023-09-18T14:50:11;97910.69;;;25.13;44.65
57086;BME280;42964;42.910;23.792;2023-09-18T14:55:10;97913.09;;;25.02;44.81
57086;BME280;42964;42.910;23.792;2023-09-18T15:00:09;97894.75;;;24.81;45.51
57086;BME280;42964;42.910;23.792;2023-09-18T15:05:12;97906.03;;;25.01;45.19
57086;BME280;42964;42.910;23.792;2023-09-18T15:10:15;97902.41;;;24.87;45.09
57086;BME280;42964;42.910;23.792;2023-09-18T15:15:14;97889.59;;;24.94;44.18
57086;BME280;42964;42.910;23.792;2023-09-18T15:20:13;97895.59;;;24.98;44.02
57086;BME280;42964;42.910;23.792;2023-09-18T15:25:12;97895.78;;;24.95;44.13
57086;BME280;42964;42.910;23.792;2023-09-18T15:30:11;97886.59;;;24.84;43.90
57086;BME280;42964;42.910;23.792;2023-09-18T15:35:10;97895.69;;;24.80;43.66
57086;BME280;42964;42.910;23.792;2023-09-18T15:40:10;97902.28;;;24.89;43.94
57086;BME280;42964;42.910;23.792;2023-09-18T15:45:09;97908.97;;;24.96;44.38
57086;BME280;42964;42.910;23.792;2023-09-18T15:50:11;97897.22;;;24.84;44.03
57086;BME280;42964;42.910;23.792;2023-09-18T15:55:10;97910.50;;;24.68;44.58
57086;BME280;42964;42.910;23.792;2023-09-18T16:00:10;97905.72;;;24.59;45.10
57086;BME280;42964;42.910;23.792;2023-09-18T16:05:11;97869.75;;;24.54;45.72
57086;BME280;42964;42.910;23.792;2023-09-18T16:10:10;97899.38;;;24.62;47.47
57086;BME280;42964;42.910;23.792;2023-09-18T16:15:09;97891.34;;;24.47;49.18
57086;BME280;42964;42.910;23.792;2023-09-18T16:20:08;97837.91;;;23.89;51.02
57086;BME280;42964;42.910;23.792;2023-09-18T16:25:09;97894.28;;;23.92;52.00
57086;BME280;42964;42.910;23.792;2023-09-18T16:30:10;97875.13;;;23.35;52.91
57086;BME280;42964;42.910;23.792;2023-09-18T16:35:09;97911.09;;;23.21;53.69
57086;BME280;42964;42.910;23.792;2023-09-18T16:40:08;97914.25;;;22.93;54.35
57086;BME280;42964;42.910;23.792;2023-09-18T16:45:10;97919.25;;;22.62;55.54
57086;BME280;42964;42.910;23.792;2023-09-18T16:50:09;97917.78;;;22.37;55.47
57086;BME280;42964;42.910;23.792;2023-09-18T16:55:08;97920.72;;;22.10;56.44
57086;BME280;42964;42.910;23.792;2023-09-18T17:00:08;97926.03;;;21.90;57.57
57086;BME280;42964;42.910;23.792;2023-09-18T17:05:07;97922.59;;;21.67;57.84
57086;BME280;42964;42.910;23.792;2023-09-18T17:10:06;97935.72;;;21.48;58.90
57086;BME280;42964;42.910;23.792;2023-09-18T17:15:05;97906.28;;;21.15;59.47
57086;BME280;42964;42.910;23.792;2023-09-18T17:20:07;97926.41;;;21.18;60.20
57086;BME280;42964;42.910;23.792;2023-09-18T17:25:06;97938.94;;;21.12;61.03
57086;BME280;42964;42.910;23.792;2023-09-18T17:30:06;97943.72;;;21.03;61.54
57086;BME280;42964;42.910;23.792;2023-09-18T17:35:05;97962.63;;;20.92;62.29
57086;BME280;42964;42.910;23.792;2023-09-18T17:40:05;97969.16;;;20.82;62.27
57086;BME280;42964;42.910;23.792;2023-09-18T17:45:05;97973.88;;;20.74;62.47
57086;BME280;42964;42.910;23.792;2023-09-18T17:50:05;97983.63;;;20.71;63.56
57086;BME280;42964;42.910;23.792;2023-09-18T17:55:04;97978.25;;;20.51;64.40
57086;BME280;42964;42.910;23.792;2023-09-18T18:00:07;97973.53;;;20.36;65.17
57086;BME280;42964;42.910;23.792;2023-09-18T18:05:15;97984.25;;;20.31;66.15
57086;BME280;42964;42.910;23.792;2023-09-18T18:10:14;97979.59;;;20.14;67.30
57086;BME280;42964;42.910;23.792;2023-09-18T18:15:13;97980.13;;;19.99;67.86
57086;BME280;42964;42.910;23.792;2023-09-18T18:20:13;97971.03;;;19.82;68.89
57086;BME280;42964;42.910;23.792;2023-09-18T18:25:14;97974.16;;;19.69;69.01
57086;BME280;42964;42.910;23.792;2023-09-18T18:30:14;97946.31;;;19.35;68.99
57086;BME280;42964;42.910;23.792;2023-09-18T18:35:15;97977.91;;;19.35;70.40
57086;BME280;42964;42.910;23.792;2023-09-18T18:40:19;97981.63;;;19.28;70.35
57086;BME280;42964;42.910;23.792;2023-09-18T18:45:20;97981.16;;;19.15;72.22
57086;BME280;42964;42.910;23.792;2023-09-18T18:50:21;97994.00;;;18.97;74.32
57086;BME280;42964;42.910;23.792;2023-09-18T18:55:21;97999.88;;;18.76;76.53
57086;BME280;42964;42.910;23.792;2023-09-18T19:00:21;98001.00;;;18.36;79.19
57086;BME280;42964;42.910;23.792;2023-09-18T19:05:20;98005.97;;;18.15;79.22
57086;BME280;42964;42.910;23.792;2023-09-18T19:10:22;97929.59;;;17.59;78.91
57086;BME280;42964;42.910;23.792;2023-09-18T19:15:22;98008.63;;;18.14;77.53
57086;BME280;42964;42.910;23.792;2023-09-18T19:20:23;98003.25;;;18.18;76.47
57086;BME280;42964;42.910;23.792;2023-09-18T19:25:22;97999.66;;;18.23;75.99
57086;BME280;42964;42.910;23.792;2023-09-18T19:30:21;98009.72;;;18.07;77.54
57086;BME280;42964;42.910;23.792;2023-09-18T19:35:20;98022.75;;;18.10;77.39
57086;BME280;42964;42.910;23.792;2023-09-18T19:40:19;98024.63;;;18.06;77.64
57086;BME280;42964;42.910;23.792;2023-09-18T19:45:18;98024.56;;;18.08;77.42
57086;BME280;42964;42.910;23.792;2023-09-18T19:50:17;98018.28;;;17.81;78.67
57086;BME280;42964;42.910;23.792;2023-09-18T19:55:16;98022.63;;;17.82;78.06
57086;BME280;42964;42.910;23.792;2023-09-18T20:00:16;98027.19;;;17.73;78.01
57086;BME280;42964;42.910;23.792;2023-09-18T20:05:15;98028.16;;;17.69;78.15
57086;BME280;42964;42.910;23.792;2023-09-18T20:10:14;98003.31;;;17.48;78.26
57086;BME280;42964;42.910;23.792;2023-09-18T20:15:17;98026.13;;;17.45;79.44
57086;BME280;42964;42.910;23.792;2023-09-18T20:20:17;98029.75;;;17.41;79.70
57086;BME280;42964;42.910;23.792;2023-09-18T20:25:16;98016.69;;;17.38;79.65
57086;BME280;42964;42.910;23.792;2023-09-18T20:30:15;98011.59;;;17.31;80.65
57086;BME280;42964;42.910;23.792;2023-09-18T20:35:14;98018.00;;;17.20;81.06
57086;BME280;42964;42.910;23.792;2023-09-18T20:40:13;98019.09;;;17.09;81.19
57086;BME280;42964;42.910;23.792;2023-09-18T20:45:12;98019.31;;;17.00;81.72
57086;BME280;42964;42.910;23.792;2023-09-18T20:50:12;97984.94;;;16.72;82.11
57086;BME280;42964;42.910;23.792;2023-09-18T20:55:11;98004.88;;;16.79;82.51
57086;BME280;42964;42.910;23.792;2023-09-18T21:00:11;98000.78;;;16.67;82.92
57086;BME280;42964;42.910;23.792;2023-09-18T21:05:13;97995.69;;;16.61;83.09
57086;BME280;42964;42.910;23.792;2023-09-18T21:10:15;97857.13;;;15.63;83.63
57086;BME280;42964;42.910;23.792;2023-09-18T21:15:14;98005.88;;;16.33;85.59
57086;BME280;42964;42.910;23.792;2023-09-18T21:20:13;98012.03;;;16.30;85.29
57086;BME280;42964;42.910;23.792;2023-09-18T21:25:12;97994.66;;;16.26;85.88
57086;BME280;42964;42.910;23.792;2023-09-18T21:30:10;98000.09;;;16.16;86.42
57086;BME280;42964;42.910;23.792;2023-09-18T21:35:10;97988.06;;;16.07;86.39
57086;BME280;42964;42.910;23.792;2023-09-18T21:40:09;97991.78;;;15.94;86.96
57086;BME280;42964;42.910;23.792;2023-09-18T21:45:09;97991.03;;;15.87;87.54
57086;BME280;42964;42.910;23.792;2023-09-18T21:50:08;97981.59;;;15.77;87.96
57086;BME280;42964;42.910;23.792;2023-09-18T21:55:07;97980.03;;;15.66;87.38
57086;BME280;42964;42.910;23.792;2023-09-18T22:00:07;97977.72;;;15.48;87.67
57086;BME280;42964;42.910;23.792;2023-09-18T22:05:26;97985.75;;;15.39;87.62
57086;BME280;42964;42.910;23.792;2023-09-18T22:10:25;97978.72;;;15.42;87.58
57086;BME280;42964;42.910;23.792;2023-09-18T22:15:24;97985.84;;;15.33;87.66
57086;BME280;42964;42.910;23.792;2023-09-18T22:20:23;97976.25;;;15.33;87.44
57086;BME280;42964;42.910;23.792;2023-09-18T22:25:22;97981.56;;;15.29;87.49
57086;BME280;42964;42.910;23.792;2023-09-18T22:30:21;97992.22;;;15.15;86.47
57086;BME280;42964;42.910;23.792;2023-09-18T22:35:20;97990.59;;;15.08;86.48
57086;BME280;42964;42.910;23.792;2023-09-18T22:56:31;97975.25;;;14.85;85.20
57086;BME280;42964;42.910;23.792;2023-09-18T23:01:31;97971.78;;;14.82;85.55
57086;BME280;42964;42.910;23.792;2023-09-18T23:06:31;97977.72;;;14.94;84.94
57086;BME280;42964;42.910;23.792;2023-09-18T23:11:32;97984.63;;;14.99;84.87
57086;BME280;42964;42.910;23.792;2023-09-18T23:16:33;97987.44;;;14.86;85.69
57086;BME280;42964;42.910;23.792;2023-09-18T23:21:32;97990.91;;;14.88;86.12
57086;BME280;42964;42.910;23.792;2023-09-18T23:26:31;97982.34;;;14.76;86.36
57086;BME280;42964;42.910;23.792;2023-09-18T23:31:30;97987.47;;;14.84;85.74
57086;BME280;42964;42.910;23.792;2023-09-18T23:36:29;97984.06;;;14.77;86.06
57086;BME280;42964;42.910;23.792;2023-09-18T23:41:28;97981.50;;;14.76;86.10
57086;BME280;42964;42.910;23.792;2023-09-18T23:46:27;97978.06;;;14.68;86.22
57086;BME280;42964;42.910;23.792;2023-09-18T23:51:26;97961.59;;;14.64;86.38
57086;BME280;42964;42.910;23.792;2023-09-18T23:56:25;97960.72;;;14.63;86.54
